sensor_id;sensor_type;location;lat;lon;timestamp;P1;durP1;ratioP1;P2;durP2;ratioP2
34695;SDS011;20918;51.138;17.370;2022-07-22T00:01:19;6.62;;;5.58;;
34695;SDS011;20918;51.138;17.370;2022-07-22T00:04:20;8.53;;;6.08;;
34695;SDS011;20918;51.138;17.370;2022-07-22T00:07:22;8.23;;;6.17;;
34695;SDS011;20918;51.138;17.370;2022-07-22T00:10:23;8.60;;;6.10;;
34695;SDS011;20918;51.138;17.370;2022-07-22T00:13:24;8.50;;;6.78;;
34695;SDS011;20918;51.138;17.370;2022-07-22T00:16:25;6.17;;;5.55;;
34695;SDS011;20918;51.138;17.370;2022-07-22T00:19:26;5.90;;;5.37;;
34695;SDS011;20918;51.138;17.370;2022-07-22T00:22:27;7.62;;;6.10;;
34695;SDS011;20918;51.138;17.370;2022-07-22T00:25:28;8.85;;;5.80;;
34695;SDS011;20918;51.138;17.370;2022-07-22T00:28:30;7.00;;;6.28;;
34695;SDS011;20918;51.138;17.370;2022-07-22T00:31:31;7.55;;;5.85;;
34695;SDS011;20918;51.138;17.370;2022-07-22T00:34:32;7.95;;;6.17;;
34695;SDS011;20918;51.138;17.370;2022-07-22T00:37:35;6.75;;;6.15;;
34695;SDS011;20918;51.138;17.370;2022-07-22T00:40:36;9.68;;;6.12;;
34695;SDS011;20918;51.138;17.370;2022-07-22T00:46:55;6.90;;;6.12;;
34695;SDS011;20918;51.138;17.370;2022-07-22T00:49:57;6.40;;;5.75;;
34695;SDS011;20918;51.138;17.370;2022-07-22T00:52:58;5.83;;;5.33;;
34695;SDS011;20918;51.138;17.370;2022-07-22T00:55:59;6.50;;;5.90;;
34695;SDS011;20918;51.138;17.370;2022-07-22T00:59:04;6.70;;;5.95;;
34695;SDS011;20918;51.138;17.370;2022-07-22T01:02:07;7.45;;;5.95;;
34695;SDS011;20918;51.138;17.370;2022-07-22T01:05:09;7.00;;;6.12;;
34695;SDS011;20918;51.138;17.370;2022-07-22T01:08:11;8.35;;;6.25;;
34695;SDS011;20918;51.138;17.370;2022-07-22T01:11:13;9.20;;;6.55;;
34695;SDS011;20918;51.138;17.370;2022-07-22T01:14:17;10.08;;;6.87;;
34695;SDS011;20918;51.138;17.370;2022-07-22T01:17:19;7.30;;;6.45;;
34695;SDS011;20918;51.138;17.370;2022-07-22T01:20:21;9.78;;;7.15;;
34695;SDS011;20918;51.138;17.370;2022-07-22T01:23:22;8.03;;;6.37;;
34695;SDS011;20918;51.138;17.370;2022-07-22T01:26:23;7.75;;;7.05;;
34695;SDS011;20918;51.138;17.370;2022-07-22T01:29:25;12.33;;;7.47;;
34695;SDS011;20918;51.138;17.370;2022-07-22T01:32:26;9.98;;;6.55;;
34695;SDS011;20918;51.138;17.370;2022-07-22T01:35:28;9.38;;;6.75;;
34695;SDS011;20918;51.138;17.370;2022-07-22T01:38:29;15.23;;;8.53;;
34695;SDS011;20918;51.138;17.370;2022-07-22T01:41:30;14.75;;;7.50;;
34695;SDS011;20918;51.138;17.370;2022-07-22T01:44:33;9.73;;;6.95;;
34695;SDS011;20918;51.138;17.370;2022-07-22T01:47:35;11.15;;;7.78;;
34695;SDS011;20918;51.138;17.370;2022-07-22T01:50:37;7.65;;;6.72;;
34695;SDS011;20918;51.138;17.370;2022-07-22T01:53:38;11.25;;;6.97;;
34695;SDS011;20918;51.138;17.370;2022-07-22T01:56:39;10.25;;;7.22;;
34695;SDS011;20918;51.138;17.370;2022-07-22T01:59:40;6.47;;;5.95;;
34695;SDS011;20918;51.138;17.370;2022-07-22T02:02:41;8.03;;;6.55;;
34695;SDS011;20918;51.138;17.370;2022-07-22T02:05:43;9.40;;;7.28;;
34695;SDS011;20918;51.138;17.370;2022-07-22T02:08:47;8.55;;;7.17;;
34695;SDS011;20918;51.138;17.370;2022-07-22T02:11:50;9.95;;;6.67;;
34695;SDS011;20918;51.138;17.370;2022-07-22T02:14:51;8.08;;;6.47;;
34695;SDS011;20918;51.138;17.370;2022-07-22T02:17:53;7.22;;;6.53;;
34695;SDS011;20918;51.138;17.370;2022-07-22T02:20:55;9.68;;;6.90;;
34695;SDS011;20918;51.138;17.370;2022-07-22T02:23:56;14.58;;;7.47;;
34695;SDS011;20918;51.138;17.370;2022-07-22T02:26:57;10.88;;;7.12;;
34695;SDS011;20918;51.138;17.370;2022-07-22T02:29:58;9.33;;;7.40;;
34695;SDS011;20918;51.138;17.370;2022-07-22T02:33:00;10.00;;;7.45;;
34695;SDS011;20918;51.138;17.370;2022-07-22T02:36:02;8.33;;;7.53;;
34695;SDS011;20918;51.138;17.370;2022-07-22T02:39:05;8.65;;;7.85;;
34695;SDS011;20918;51.138;17.370;2022-07-22T02:42:07;8.45;;;6.75;;
34695;SDS011;20918;51.138;17.370;2022-07-22T02:45:08;9.95;;;7.83;;
34695;SDS011;20918;51.138;17.370;2022-07-22T02:48:10;13.13;;;8.20;;
34695;SDS011;20918;51.138;17.370;2022-07-22T02:51:12;9.65;;;8.25;;
34695;SDS011;20918;51.138;17.370;2022-07-22T02:54:15;9.73;;;8.53;;
34695;SDS011;20918;51.138;17.370;2022-07-22T02:57:16;10.65;;;8.73;;
34695;SDS011;20918;51.138;17.370;2022-07-22T03:00:17;12.58;;;8.45;;
34695;SDS011;20918;51.138;17.370;2022-07-22T03:03:19;10.90;;;8.35;;
34695;SDS011;20918;51.138;17.370;2022-07-22T03:06:20;9.70;;;7.70;;
34695;SDS011;20918;51.138;17.370;2022-07-22T03:09:23;9.43;;;7.75;;
34695;SDS011;20918;51.138;17.370;2022-07-22T03:12:25;11.12;;;8.63;;
34695;SDS011;20918;51.138;17.370;2022-07-22T03:20:05;14.95;;;9.78;;
34695;SDS011;20918;51.138;17.370;2022-07-22T03:23:09;18.32;;;10.65;;
34695;SDS011;20918;51.138;17.370;2022-07-22T03:26:11;13.50;;;10.32;;
34695;SDS011;20918;51.138;17.370;2022-07-22T03:29:12;15.63;;;11.08;;
34695;SDS011;20918;51.138;17.370;2022-07-22T03:32:14;15.48;;;10.60;;
34695;SDS011;20918;51.138;17.370;2022-07-22T03:35:17;13.75;;;10.38;;
34695;SDS011;20918;51.138;17.370;2022-07-22T03:38:19;14.33;;;10.50;;
34695;SDS011;20918;51.138;17.370;2022-07-22T03:41:22;16.87;;;11.00;;
34695;SDS011;20918;51.138;17.370;2022-07-22T03:44:24;19.17;;;11.28;;
34695;SDS011;20918;51.138;17.370;2022-07-22T03:47:25;13.90;;;9.58;;
34695;SDS011;20918;51.138;17.370;2022-07-22T03:50:27;17.57;;;10.48;;
34695;SDS011;20918;51.138;17.370;2022-07-22T03:53:29;12.93;;;10.90;;
34695;SDS011;20918;51.138;17.370;2022-07-22T03:56:30;14.50;;;10.45;;
34695;SDS011;20918;51.138;17.370;2022-07-22T03:59:32;15.38;;;10.58;;
34695;SDS011;20918;51.138;17.370;2022-07-22T04:02:36;12.03;;;10.40;;
34695;SDS011;20918;51.138;17.370;2022-07-22T04:05:37;12.75;;;9.93;;
34695;SDS011;20918;51.138;17.370;2022-07-22T04:08:38;14.28;;;10.23;;
34695;SDS011;20918;51.138;17.370;2022-07-22T04:11:39;15.28;;;10.23;;
34695;SDS011;20918;51.138;17.370;2022-07-22T04:14:40;12.60;;;9.83;;
34695;SDS011;20918;51.138;17.370;2022-07-22T04:17:42;15.28;;;10.15;;
34695;SDS011;20918;51.138;17.370;2022-07-22T04:20:44;13.72;;;10.60;;
34695;SDS011;20918;51.138;17.370;2022-07-22T04:23:48;15.10;;;10.50;;
34695;SDS011;20918;51.138;17.370;2022-07-22T04:26:50;13.62;;;10.53;;
34695;SDS011;20918;51.138;17.370;2022-07-22T04:29:51;15.53;;;10.23;;
34695;SDS011;20918;51.138;17.370;2022-07-22T04:32:53;12.93;;;10.13;;
34695;SDS011;20918;51.138;17.370;2022-07-22T04:35:54;13.90;;;10.60;;
34695;SDS011;20918;51.138;17.370;2022-07-22T04:38:56;15.35;;;10.35;;
34695;SDS011;20918;51.138;17.370;2022-07-22T04:41:58;16.52;;;11.25;;
34695;SDS011;20918;51.138;17.370;2022-07-22T04:45:00;14.83;;;10.95;;
34695;SDS011;20918;51.138;17.370;2022-07-22T04:48:01;12.20;;;10.60;;
34695;SDS011;20918;51.138;17.370;2022-07-22T04:51:07;11.97;;;10.75;;
34695;SDS011;20918;51.138;17.370;2022-07-22T04:54:09;13.08;;;10.38;;
34695;SDS011;20918;51.138;17.370;2022-07-22T04:57:11;13.43;;;10.98;;
34695;SDS011;20918;51.138;17.370;2022-07-22T05:00:13;16.37;;;10.55;;
34695;SDS011;20918;51.138;17.370;2022-07-22T05:03:19;12.85;;;10.72;;
34695;SDS011;20918;51.138;17.370;2022-07-22T05:06:20;14.80;;;12.20;;
34695;SDS011;20918;51.138;17.370;2022-07-22T05:09:21;12.20;;;11.00;;
34695;SDS011;20918;51.138;17.370;2022-07-22T05:12:23;14.53;;;11.15;;
34695;SDS011;20918;51.138;17.370;2022-07-22T05:15:24;12.58;;;11.12;;
34695;SDS011;20918;51.138;17.370;2022-07-22T05:18:26;13.22;;;10.15;;
34695;SDS011;20918;51.138;17.370;2022-07-22T05:21:27;12.00;;;10.23;;
34695;SDS011;20918;51.138;17.370;2022-07-22T05:24:28;15.58;;;10.65;;
34695;SDS011;20918;51.138;17.370;2022-07-22T05:27:30;14.23;;;10.55;;
34695;SDS011;20918;51.138;17.370;2022-07-22T05:30:32;11.90;;;10.65;;
34695;SDS011;20918;51.138;17.370;2022-07-22T05:33:33;14.25;;;10.82;;
34695;SDS011;20918;51.138;17.370;2022-07-22T05:36:39;15.08;;;11.50;;
34695;SDS011;20918;51.138;17.370;2022-07-22T05:39:43;13.10;;;11.68;;
34695;SDS011;20918;51.138;17.370;2022-07-22T05:42:44;15.35;;;11.43;;
34695;SDS011;20918;51.138;17.370;2022-07-22T05:45:45;13.85;;;11.88;;
34695;SDS011;20918;51.138;17.370;2022-07-22T05:48:46;17.90;;;12.47;;
34695;SDS011;20918;51.138;17.370;2022-07-22T05:51:47;15.10;;;10.98;;
34695;SDS011;20918;51.138;17.370;2022-07-22T05:54:49;16.30;;;10.28;;
34695;SDS011;20918;51.138;17.370;2022-07-22T05:57:50;11.68;;;10.32;;
34695;SDS011;20918;51.138;17.370;2022-07-22T06:00:51;11.55;;;10.30;;
34695;SDS011;20918;51.138;17.370;2022-07-22T06:03:53;12.40;;;10.43;;
34695;SDS011;20918;51.138;17.370;2022-07-22T06:06:54;9.90;;;8.58;;
34695;SDS011;20918;51.138;17.370;2022-07-22T06:09:55;12.03;;;9.50;;
34695;SDS011;20918;51.138;17.370;2022-07-22T06:12:57;12.30;;;9.40;;
34695;SDS011;20918;51.138;17.370;2022-07-22T06:15:59;12.15;;;9.38;;
34695;SDS011;20918;51.138;17.370;2022-07-22T06:19:01;9.45;;;8.55;;
34695;SDS011;20918;51.138;17.370;2022-07-22T06:22:03;9.80;;;8.58;;
34695;SDS011;20918;51.138;17.370;2022-07-22T06:25:05;10.28;;;8.80;;
34695;SDS011;20918;51.138;17.370;2022-07-22T06:28:07;9.75;;;8.28;;
34695;SDS011;20918;51.138;17.370;2022-07-22T06:31:08;11.18;;;8.43;;
34695;SDS011;20918;51.138;17.370;2022-07-22T06:34:10;9.00;;;8.20;;
34695;SDS011;20918;51.138;17.370;2022-07-22T06:37:18;9.55;;;7.85;;
34695;SDS011;20918;51.138;17.370;2022-07-22T06:40:20;10.65;;;7.65;;
34695;SDS011;20918;51.138;17.370;2022-07-22T06:43:23;8.03;;;7.33;;
34695;SDS011;20918;51.138;17.370;2022-07-22T06:46:26;10.48;;;7.72;;
34695;SDS011;20918;51.138;17.370;2022-07-22T06:49:27;9.03;;;8.10;;
34695;SDS011;20918;51.138;17.370;2022-07-22T06:52:28;10.35;;;8.55;;
34695;SDS011;20918;51.138;17.370;2022-07-22T06:55:30;8.33;;;7.45;;
34695;SDS011;20918;51.138;17.370;2022-07-22T06:58:37;8.55;;;7.72;;
34695;SDS011;20918;51.138;17.370;2022-07-22T07:01:39;10.93;;;8.05;;
34695;SDS011;20918;51.138;17.370;2022-07-22T07:04:40;8.20;;;7.17;;
34695;SDS011;20918;51.138;17.370;2022-07-22T07:07:41;8.55;;;7.28;;
34695;SDS011;20918;51.138;17.370;2022-07-22T07:10:43;7.35;;;6.65;;
34695;SDS011;20918;51.138;17.370;2022-07-22T07:13:46;7.95;;;6.62;;
34695;SDS011;20918;51.138;17.370;2022-07-22T07:16:47;6.95;;;6.25;;
34695;SDS011;20918;51.138;17.370;2022-07-22T07:19:50;7.20;;;6.50;;
34695;SDS011;20918;51.138;17.370;2022-07-22T07:22:51;7.67;;;6.87;;
34695;SDS011;20918;51.138;17.370;2022-07-22T07:25:54;7.22;;;6.62;;
34695;SDS011;20918;51.138;17.370;2022-07-22T07:28:55;8.35;;;6.33;;
34695;SDS011;20918;51.138;17.370;2022-07-22T07:32:10;7.10;;;6.50;;
34695;SDS011;20918;51.138;17.370;2022-07-22T07:35:15;9.15;;;7.03;;
34695;SDS011;20918;51.138;17.370;2022-07-22T07:38:16;7.17;;;6.45;;
34695;SDS011;20918;51.138;17.370;2022-07-22T07:41:20;7.92;;;6.87;;
34695;SDS011;20918;51.138;17.370;2022-07-22T07:44:23;9.00;;;6.47;;
34695;SDS011;20918;51.138;17.370;2022-07-22T07:47:25;7.15;;;6.50;;
34695;SDS011;20918;51.138;17.370;2022-07-22T07:50:26;7.47;;;6.78;;
34695;SDS011;20918;51.138;17.370;2022-07-22T07:53:28;10.00;;;6.95;;
34695;SDS011;20918;51.138;17.370;2022-07-22T07:56:29;7.15;;;6.50;;
34695;SDS011;20918;51.138;17.370;2022-07-22T07:59:30;7.08;;;6.37;;
34695;SDS011;20918;51.138;17.370;2022-07-22T08:02:33;9.30;;;7.30;;
34695;SDS011;20918;51.138;17.370;2022-07-22T08:05:35;8.33;;;7.53;;
34695;SDS011;20918;51.138;17.370;2022-07-22T08:08:41;8.60;;;6.53;;
34695;SDS011;20918;51.138;17.370;2022-07-22T08:11:47;7.90;;;7.10;;
34695;SDS011;20918;51.138;17.370;2022-07-22T08:15:02;8.38;;;7.22;;
34695;SDS011;20918;51.138;17.370;2022-07-22T08:18:06;7.97;;;6.67;;
34695;SDS011;20918;51.138;17.370;2022-07-22T08:21:07;8.50;;;7.72;;
34695;SDS011;20918;51.138;17.370;2022-07-22T08:24:19;8.25;;;7.10;;
34695;SDS011;20918;51.138;17.370;2022-07-22T08:27:21;7.62;;;6.90;;
34695;SDS011;20918;51.138;17.370;2022-07-22T08:30:23;7.53;;;6.83;;
34695;SDS011;20918;51.138;17.370;2022-07-22T08:33:26;10.13;;;6.87;;
34695;SDS011;20918;51.138;17.370;2022-07-22T08:36:27;9.30;;;7.37;;
34695;SDS011;20918;51.138;17.370;2022-07-22T08:39:34;11.65;;;6.97;;
34695;SDS011;20918;51.138;17.370;2022-07-22T08:42:41;8.70;;;7.30;;
34695;SDS011;20918;51.138;17.370;2022-07-22T08:45:47;8.00;;;7.20;;
34695;SDS011;20918;51.138;17.370;2022-07-22T08:48:52;8.08;;;7.37;;
34695;SDS011;20918;51.138;17.370;2022-07-22T08:52:02;9.45;;;7.62;;
34695;SDS011;20918;51.138;17.370;2022-07-22T08:55:06;8.38;;;7.45;;
34695;SDS011;20918;51.138;17.370;2022-07-22T08:58:09;8.38;;;7.58;;
34695;SDS011;20918;51.138;17.370;2022-07-22T09:01:14;7.55;;;6.85;;
34695;SDS011;20918;51.138;17.370;2022-07-22T09:04:19;9.58;;;8.05;;
34695;SDS011;20918;51.138;17.370;2022-07-22T09:07:24;9.35;;;8.05;;
34695;SDS011;20918;51.138;17.370;2022-07-22T09:10:32;8.60;;;7.65;;
34695;SDS011;20918;51.138;17.370;2022-07-22T09:13:42;9.48;;;7.72;;
34695;SDS011;20918;51.138;17.370;2022-07-22T09:16:49;10.23;;;7.22;;
34695;SDS011;20918;51.138;17.370;2022-07-22T09:19:55;10.13;;;7.97;;
34695;SDS011;20918;51.138;17.370;2022-07-22T09:23:08;8.18;;;7.17;;
34695;SDS011;20918;51.138;17.370;2022-07-22T09:26:32;8.83;;;7.30;;
34695;SDS011;20918;51.138;17.370;2022-07-22T09:29:50;8.55;;;7.33;;
34695;SDS011;20918;51.138;17.370;2022-07-22T09:32:53;10.20;;;7.70;;
34695;SDS011;20918;51.138;17.370;2022-07-22T09:36:18;9.78;;;7.28;;
34695;SDS011;20918;51.138;17.370;2022-07-22T09:39:33;10.75;;;8.40;;
34695;SDS011;20918;51.138;17.370;2022-07-22T09:42:53;11.50;;;8.25;;
34695;SDS011;20918;51.138;17.370;2022-07-22T09:45:59;9.15;;;8.20;;
34695;SDS011;20918;51.138;17.370;2022-07-22T09:49:02;9.68;;;7.60;;
34695;SDS011;20918;51.138;17.370;2022-07-22T09:52:05;11.10;;;7.85;;
34695;SDS011;20918;51.138;17.370;2022-07-22T09:55:16;8.70;;;7.17;;
34695;SDS011;20918;51.138;17.370;2022-07-22T09:58:20;10.25;;;8.15;;
34695;SDS011;20918;51.138;17.370;2022-07-22T10:01:21;9.20;;;7.62;;
34695;SDS011;20918;51.138;17.370;2022-07-22T10:04:26;8.80;;;7.17;;
34695;SDS011;20918;51.138;17.370;2022-07-22T10:07:31;7.95;;;7.15;;
34695;SDS011;20918;51.138;17.370;2022-07-22T10:10:33;7.67;;;6.87;;
34695;SDS011;20918;51.138;17.370;2022-07-22T10:13:41;6.37;;;5.78;;
34695;SDS011;20918;51.138;17.370;2022-07-22T10:16:43;6.65;;;5.85;;
34695;SDS011;20918;51.138;17.370;2022-07-22T10:19:45;7.62;;;5.80;;
34695;SDS011;20918;51.138;17.370;2022-07-22T10:25:58;6.75;;;6.08;;
34695;SDS011;20918;51.138;17.370;2022-07-22T10:32:43;13.03;;;6.30;;
34695;SDS011;20918;51.138;17.370;2022-07-22T10:35:57;6.80;;;6.10;;
34695;SDS011;20918;51.138;17.370;2022-07-22T10:39:03;8.00;;;7.10;;
34695;SDS011;20918;51.138;17.370;2022-07-22T10:42:07;7.92;;;6.75;;
34695;SDS011;20918;51.138;17.370;2022-07-22T10:45:11;6.78;;;5.90;;
34695;SDS011;20918;51.138;17.370;2022-07-22T10:48:25;7.22;;;6.47;;
34695;SDS011;20918;51.138;17.370;2022-07-22T10:51:29;7.58;;;5.87;;
34695;SDS011;20918;51.138;17.370;2022-07-22T10:54:31;6.92;;;6.28;;
34695;SDS011;20918;51.138;17.370;2022-07-22T10:57:37;7.33;;;6.33;;
34695;SDS011;20918;51.138;17.370;2022-07-22T11:00:38;6.25;;;5.65;;
34695;SDS011;20918;51.138;17.370;2022-07-22T11:03:40;6.55;;;5.40;;
34695;SDS011;20918;51.138;17.370;2022-07-22T11:06:45;6.87;;;6.05;;
34695;SDS011;20918;51.138;17.370;2022-07-22T11:09:48;7.97;;;5.50;;
34695;SDS011;20918;51.138;17.370;2022-07-22T11:12:49;10.82;;;5.22;;
34695;SDS011;20918;51.138;17.370;2022-07-22T11:15:53;6.80;;;5.75;;
34695;SDS011;20918;51.138;17.370;2022-07-22T11:18:56;5.55;;;4.90;;
34695;SDS011;20918;51.138;17.370;2022-07-22T11:22:01;6.05;;;5.55;;
34695;SDS011;20918;51.138;17.370;2022-07-22T11:25:06;7.87;;;5.65;;
34695;SDS011;20918;51.138;17.370;2022-07-22T11:28:10;8.48;;;5.65;;
34695;SDS011;20918;51.138;17.370;2022-07-22T11:31:15;9.38;;;5.72;;
34695;SDS011;20918;51.138;17.370;2022-07-22T11:34:18;6.10;;;5.25;;
34695;SDS011;20918;51.138;17.370;2022-07-22T11:37:21;6.03;;;5.42;;
34695;SDS011;20918;51.138;17.370;2022-07-22T11:40:30;8.08;;;5.28;;
34695;SDS011;20918;51.138;17.370;2022-07-22T11:43:44;7.70;;;5.22;;
34695;SDS011;20918;51.138;17.370;2022-07-22T11:46:48;6.33;;;5.17;;
34695;SDS011;20918;51.138;17.370;2022-07-22T11:49:54;6.58;;;5.17;;
34695;SDS011;20918;51.138;17.370;2022-07-22T11:53:01;8.08;;;5.97;;
34695;SDS011;20918;51.138;17.370;2022-07-22T11:56:03;5.92;;;5.35;;
34695;SDS011;20918;51.138;17.370;2022-07-22T11:59:08;9.23;;;5.60;;
34695;SDS011;20918;51.138;17.370;2022-07-22T12:02:15;5.10;;;4.60;;
34695;SDS011;20918;51.138;17.370;2022-07-22T12:05:20;7.90;;;4.75;;
34695;SDS011;20918;51.138;17.370;2022-07-22T12:08:22;5.87;;;5.12;;
34695;SDS011;20918;51.138;17.370;2022-07-22T12:11:24;10.05;;;6.22;;
34695;SDS011;20918;51.138;17.370;2022-07-22T12:14:31;6.35;;;5.25;;
34695;SDS011;20918;51.138;17.370;2022-07-22T12:17:32;10.38;;;4.92;;
34695;SDS011;20918;51.138;17.370;2022-07-22T12:20:33;7.00;;;4.58;;
34695;SDS011;20918;51.138;17.370;2022-07-22T12:23:40;5.35;;;4.85;;
34695;SDS011;20918;51.138;17.370;2022-07-22T12:26:54;5.67;;;4.97;;
34695;SDS011;20918;51.138;17.370;2022-07-22T12:30:09;6.03;;;4.92;;
34695;SDS011;20918;51.138;17.370;2022-07-22T12:33:12;5.92;;;5.40;;
34695;SDS011;20918;51.138;17.370;2022-07-22T12:36:18;5.35;;;4.83;;
34695;SDS011;20918;51.138;17.370;2022-07-22T12:39:19;8.28;;;5.15;;
34695;SDS011;20918;51.138;17.370;2022-07-22T12:42:21;5.55;;;4.70;;
34695;SDS011;20918;51.138;17.370;2022-07-22T12:45:26;6.17;;;4.53;;
34695;SDS011;20918;51.138;17.370;2022-07-22T12:48:29;6.78;;;5.58;;
34695;SDS011;20918;51.138;17.370;2022-07-22T12:51:31;6.33;;;5.30;;
34695;SDS011;20918;51.138;17.370;2022-07-22T12:54:32;7.15;;;5.28;;
34695;SDS011;20918;51.138;17.370;2022-07-22T12:57:37;10.05;;;4.90;;
34695;SDS011;20918;51.138;17.370;2022-07-22T13:00:46;5.28;;;4.72;;
34695;SDS011;20918;51.138;17.370;2022-07-22T13:03:52;7.10;;;5.20;;
34695;SDS011;20918;51.138;17.370;2022-07-22T13:06:53;7.35;;;5.30;;
34695;SDS011;20918;51.138;17.370;2022-07-22T13:09:56;5.90;;;5.30;;
34695;SDS011;20918;51.138;17.370;2022-07-22T13:12:57;5.53;;;4.92;;
34695;SDS011;20918;51.138;17.370;2022-07-22T13:16:00;8.45;;;5.80;;
34695;SDS011;20918;51.138;17.370;2022-07-22T13:19:02;6.17;;;5.33;;
34695;SDS011;20918;51.138;17.370;2022-07-22T13:22:07;8.58;;;5.00;;
34695;SDS011;20918;51.138;17.370;2022-07-22T13:25:09;8.78;;;4.70;;
34695;SDS011;20918;51.138;17.370;2022-07-22T13:28:10;9.23;;;5.20;;
34695;SDS011;20918;51.138;17.370;2022-07-22T13:31:12;9.28;;;5.22;;
34695;SDS011;20918;51.138;17.370;2022-07-22T13:34:18;6.47;;;4.70;;
34695;SDS011;20918;51.138;17.370;2022-07-22T13:37:20;7.15;;;4.67;;
34695;SDS011;20918;51.138;17.370;2022-07-22T13:40:22;5.70;;;5.10;;
34695;SDS011;20918;51.138;17.370;2022-07-22T13:43:25;5.17;;;4.78;;
34695;SDS011;20918;51.138;17.370;2022-07-22T13:46:26;6.20;;;4.72;;
34695;SDS011;20918;51.138;17.370;2022-07-22T13:49:27;6.55;;;4.83;;
34695;SDS011;20918;51.138;17.370;2022-07-22T13:52:29;7.75;;;5.08;;
34695;SDS011;20918;51.138;17.370;2022-07-22T13:55:31;4.67;;;4.28;;
34695;SDS011;20918;51.138;17.370;2022-07-22T13:58:33;5.03;;;4.53;;
34695;SDS011;20918;51.138;17.370;2022-07-22T14:01:36;7.97;;;4.75;;
34695;SDS011;20918;51.138;17.370;2022-07-22T14:04:38;5.15;;;4.67;;
34695;SDS011;20918;51.138;17.370;2022-07-22T14:07:41;8.85;;;4.97;;
34695;SDS011;20918;51.138;17.370;2022-07-22T14:10:43;6.08;;;4.58;;
34695;SDS011;20918;51.138;17.370;2022-07-22T14:13:45;4.72;;;4.33;;
34695;SDS011;20918;51.138;17.370;2022-07-22T14:16:46;5.97;;;4.47;;
34695;SDS011;20918;51.138;17.370;2022-07-22T14:19:48;6.72;;;4.70;;
34695;SDS011;20918;51.138;17.370;2022-07-22T14:22:49;6.05;;;4.75;;
34695;SDS011;20918;51.138;17.370;2022-07-22T14:25:50;6.55;;;4.35;;
34695;SDS011;20918;51.138;17.370;2022-07-22T14:28:51;6.65;;;4.80;;
34695;SDS011;20918;51.138;17.370;2022-07-22T14:31:58;5.28;;;4.78;;
34695;SDS011;20918;51.138;17.370;2022-07-22T14:34:59;6.37;;;4.62;;
34695;SDS011;20918;51.138;17.370;2022-07-22T14:38:02;5.33;;;4.80;;
34695;SDS011;20918;51.138;17.370;2022-07-22T14:41:03;6.92;;;4.58;;
34695;SDS011;20918;51.138;17.370;2022-07-22T14:44:05;6.92;;;4.40;;
34695;SDS011;20918;51.138;17.370;2022-07-22T14:47:07;6.87;;;4.65;;
34695;SDS011;20918;51.138;17.370;2022-07-22T14:50:08;7.65;;;4.70;;
34695;SDS011;20918;51.138;17.370;2022-07-22T14:53:09;5.37;;;4.87;;
34695;SDS011;20918;51.138;17.370;2022-07-22T14:56:11;7.95;;;4.90;;
34695;SDS011;20918;51.138;17.370;2022-07-22T14:59:12;7.85;;;5.15;;
34695;SDS011;20918;51.138;17.370;2022-07-22T15:02:13;6.25;;;4.90;;
34695;SDS011;20918;51.138;17.370;2022-07-22T15:05:15;5.50;;;5.00;;
34695;SDS011;20918;51.138;17.370;2022-07-22T15:08:16;9.53;;;5.47;;
34695;SDS011;20918;51.138;17.370;2022-07-22T15:11:18;8.58;;;5.08;;
34695;SDS011;20918;51.138;17.370;2022-07-22T15:14:20;10.20;;;5.55;;
34695;SDS011;20918;51.138;17.370;2022-07-22T15:17:21;6.53;;;5.17;;
34695;SDS011;20918;51.138;17.370;2022-07-22T15:20:23;5.35;;;4.78;;
34695;SDS011;20918;51.138;17.370;2022-07-22T15:23:25;5.65;;;4.47;;
34695;SDS011;20918;51.138;17.370;2022-07-22T15:26:28;6.22;;;4.97;;
34695;SDS011;20918;51.138;17.370;2022-07-22T15:29:30;6.25;;;4.72;;
34695;SDS011;20918;51.138;17.370;2022-07-22T15:32:31;8.65;;;4.58;;
34695;SDS011;20918;51.138;17.370;2022-07-22T15:35:32;7.83;;;4.97;;
34695;SDS011;20918;51.138;17.370;2022-07-22T15:38:34;5.58;;;4.60;;
34695;SDS011;20918;51.138;17.370;2022-07-22T15:41:38;6.03;;;4.47;;
34695;SDS011;20918;51.138;17.370;2022-07-22T15:44:44;6.55;;;4.30;;
34695;SDS011;20918;51.138;17.370;2022-07-22T15:47:45;6.80;;;4.97;;
34695;SDS011;20918;51.138;17.370;2022-07-22T15:50:48;7.67;;;4.60;;
34695;SDS011;20918;51.138;17.370;2022-07-22T15:53:49;11.25;;;5.00;;
34695;SDS011;20918;51.138;17.370;2022-07-22T15:56:51;4.92;;;4.50;;
34695;SDS011;20918;51.138;17.370;2022-07-22T15:59:55;12.37;;;5.08;;
34695;SDS011;20918;51.138;17.370;2022-07-22T16:02:56;6.12;;;4.92;;
34695;SDS011;20918;51.138;17.370;2022-07-22T16:05:58;6.15;;;5.60;;
34695;SDS011;20918;51.138;17.370;2022-07-22T16:09:01;6.70;;;4.85;;
34695;SDS011;20918;51.138;17.370;2022-07-22T16:12:06;8.15;;;5.22;;
34695;SDS011;20918;51.138;17.370;2022-07-22T16:15:08;8.98;;;5.25;;
34695;SDS011;20918;51.138;17.370;2022-07-22T16:18:10;5.85;;;4.60;;
34695;SDS011;20918;51.138;17.370;2022-07-22T16:21:12;5.33;;;4.83;;
34695;SDS011;20918;51.138;17.370;2022-07-22T16:24:14;5.00;;;4.50;;
34695;SDS011;20918;51.138;17.370;2022-07-22T16:27:19;7.85;;;4.70;;
34695;SDS011;20918;51.138;17.370;2022-07-22T16:30:21;11.60;;;5.12;;
34695;SDS011;20918;51.138;17.370;2022-07-22T16:33:25;5.55;;;4.80;;
34695;SDS011;20918;51.138;17.370;2022-07-22T16:36:27;5.35;;;4.85;;
34695;SDS011;20918;51.138;17.370;2022-07-22T16:39:32;8.78;;;4.95;;
34695;SDS011;20918;51.138;17.370;2022-07-22T16:42:34;11.95;;;4.78;;
34695;SDS011;20918;51.138;17.370;2022-07-22T16:45:38;6.58;;;5.08;;
34695;SDS011;20918;51.138;17.370;2022-07-22T16:48:40;7.92;;;5.22;;
34695;SDS011;20918;51.138;17.370;2022-07-22T16:51:41;5.42;;;4.83;;
34695;SDS011;20918;51.138;17.370;2022-07-22T16:54:43;5.72;;;4.97;;
34695;SDS011;20918;51.138;17.370;2022-07-22T16:57:44;8.75;;;5.33;;
34695;SDS011;20918;51.138;17.370;2022-07-22T17:00:46;7.37;;;4.72;;
34695;SDS011;20918;51.138;17.370;2022-07-22T17:03:48;10.13;;;4.92;;
34695;SDS011;20918;51.138;17.370;2022-07-22T17:06:49;6.08;;;4.78;;
34695;SDS011;20918;51.138;17.370;2022-07-22T17:09:51;9.70;;;5.25;;
34695;SDS011;20918;51.138;17.370;2022-07-22T17:12:52;20.02;;;5.20;;
34695;SDS011;20918;51.138;17.370;2022-07-22T17:15:53;19.50;;;5.22;;
34695;SDS011;20918;51.138;17.370;2022-07-22T17:18:55;6.60;;;5.47;;
34695;SDS011;20918;51.138;17.370;2022-07-22T17:21:57;5.97;;;5.33;;
34695;SDS011;20918;51.138;17.370;2022-07-22T17:24:59;13.72;;;5.50;;
34695;SDS011;20918;51.138;17.370;2022-07-22T17:28:01;8.13;;;5.50;;
34695;SDS011;20918;51.138;17.370;2022-07-22T17:31:04;7.95;;;5.28;;
34695;SDS011;20918;51.138;17.370;2022-07-22T17:34:07;8.50;;;5.37;;
34695;SDS011;20918;51.138;17.370;2022-07-22T17:37:12;10.08;;;5.37;;
34695;SDS011;20918;51.138;17.370;2022-07-22T17:40:14;6.65;;;5.08;;
34695;SDS011;20918;51.138;17.370;2022-07-22T17:43:15;6.33;;;5.25;;
34695;SDS011;20918;51.138;17.370;2022-07-22T17:46:17;12.73;;;6.42;;
34695;SDS011;20918;51.138;17.370;2022-07-22T17:49:20;12.37;;;9.35;;
34695;SDS011;20918;51.138;17.370;2022-07-22T17:52:22;10.13;;;7.80;;
34695;SDS011;20918;51.138;17.370;2022-07-22T17:55:23;9.78;;;8.83;;
34695;SDS011;20918;51.138;17.370;2022-07-22T17:58:26;16.80;;;12.20;;
34695;SDS011;20918;51.138;17.370;2022-07-22T18:01:29;27.65;;;23.12;;
34695;SDS011;20918;51.138;17.370;2022-07-22T18:04:32;17.73;;;8.83;;
34695;SDS011;20918;51.138;17.370;2022-07-22T18:07:34;10.05;;;5.80;;
34695;SDS011;20918;51.138;17.370;2022-07-22T18:10:37;9.83;;;5.50;;
34695;SDS011;20918;51.138;17.370;2022-07-22T18:13:43;11.33;;;5.55;;